sensor_id;sensor_type;location;lat;lon;timestamp;temperature;humidity
8261;DHT22;64115;50.170;8.242;2024-02-21T00:01:27;5.30;99.90
8261;DHT22;64115;50.170;8.242;2024-02-21T00:03:53;5.20;99.90
8261;DHT22;64115;50.170;8.242;2024-02-21T00:06:20;5.20;99.90
8261;DHT22;64115;50.170;8.242;2024-02-21T00:08:47;5.20;99.90
8261;DHT22;64115;50.170;8.242;2024-02-21T00:11:14;5.20;99.90
8261;DHT22;64115;50.170;8.242;2024-02-21T00:13:42;5.20;99.90
8261;DHT22;64115;50.170;8.242;2024-02-21T00:16:08;5.20;99.90
8261;DHT22;64115;50.170;8.242;2024-02-21T00:18:36;5.20;99.90
8261;DHT22;64115;50.170;8.242;2024-02-21T00:21:03;5.10;99.90
8261;DHT22;64115;50.170;8.242;2024-02-21T00:23:29;5.10;99.90
8261;DHT22;64115;50.170;8.242;2024-02-21T00:25:56;5.10;99.90
8261;DHT22;64115;50.170;8.242;2024-02-21T00:28:23;5.10;99.90
8261;DHT22;64115;50.170;8.242;2024-02-21T00:30:51;5.10;99.90
8261;DHT22;64115;50.170;8.242;2024-02-21T00:33:18;5.10;99.90
8261;DHT22;64115;50.170;8.242;2024-02-21T00:35:45;5.10;99.90
8261;DHT22;64115;50.170;8.242;2024-02-21T00:38:12;5.10;99.90
8261;DHT22;64115;50.170;8.242;2024-02-21T00:40:39;5.10;99.90
8261;DHT22;64115;50.170;8.242;2024-02-21T00:43:06;5.10;99.90
8261;DHT22;64115;50.170;8.242;2024-02-21T00:45:32;5.10;99.90
8261;DHT22;64115;50.170;8.242;2024-02-21T00:48:00;5.10;99.90
8261;DHT22;64115;50.170;8.242;2024-02-21T00:50:27;5.10;99.90
8261;DHT22;64115;50.170;8.242;2024-02-21T00:52:54;5.10;99.90
8261;DHT22;64115;50.170;8.242;2024-02-21T00:55:21;5.10;99.90
8261;DHT22;64115;50.170;8.242;2024-02-21T00:57:47;5.10;99.90
8261;DHT22;64115;50.170;8.242;2024-02-21T01:00:15;5.10;99.90
8261;DHT22;64115;50.170;8.242;2024-02-21T01:02:42;5.10;99.90
8261;DHT22;64115;50.170;8.242;2024-02-21T01:05:10;5.10;99.90
8261;DHT22;64115;50.170;8.242;2024-02-21T01:07:37;5.00;99.90
8261;DHT22;64115;50.170;8.242;2024-02-21T01:10:04;5.00;99.90
8261;DHT22;64115;50.170;8.242;2024-02-21T01:12:31;5.00;99.90
8261;DHT22;64115;50.170;8.242;2024-02-21T01:14:58;5.00;99.90
8261;DHT22;64115;50.170;8.242;2024-02-21T01:17:25;5.00;99.90
8261;DHT22;64115;50.170;8.242;2024-02-21T01:19:52;5.00;99.90
8261;DHT22;64115;50.170;8.242;2024-02-21T01:22:20;4.90;99.90
8261;DHT22;64115;50.170;8.242;2024-02-21T01:24:46;5.00;99.90
8261;DHT22;64115;50.170;8.242;2024-02-21T01:27:13;5.00;99.90
8261;DHT22;64115;50.170;8.242;2024-02-21T01:29:40;5.00;99.90
8261;DHT22;64115;50.170;8.242;2024-02-21T01:32:07;5.00;99.90
8261;DHT22;64115;50.170;8.242;2024-02-21T01:34:34;5.00;99.90
8261;DHT22;64115;50.170;8.242;2024-02-21T01:37:00;5.00;99.90
8261;DHT22;64115;50.170;8.242;2024-02-21T01:39:31;5.00;99.90
8261;DHT22;64115;50.170;8.242;2024-02-21T01:41:58;5.00;99.90
8261;DHT22;64115;50.170;8.242;2024-02-21T01:44:25;5.00;99.90
8261;DHT22;64115;50.170;8.242;2024-02-21T01:46:52;5.00;99.90
8261;DHT22;64115;50.170;8.242;2024-02-21T01:49:19;5.00;99.90
8261;DHT22;64115;50.170;8.242;2024-02-21T01:51:47;5.00;99.90
8261;DHT22;64115;50.170;8.242;2024-02-21T01:54:14;5.00;99.90
8261;DHT22;64115;50.170;8.242;2024-02-21T01:56:43;5.00;99.90
8261;DHT22;64115;50.170;8.242;2024-02-21T01:59:11;5.00;99.90
8261;DHT22;64115;50.170;8.242;2024-02-21T02:01:40;4.90;99.90
8261;DHT22;64115;50.170;8.242;2024-02-21T02:04:07;4.90;99.90
8261;DHT22;64115;50.170;8.242;2024-02-21T02:06:35;4.90;99.90
8261;DHT22;64115;50.170;8.242;2024-02-21T02:09:02;4.90;99.90
8261;DHT22;64115;50.170;8.242;2024-02-21T02:11:28;4.80;99.90
8261;DHT22;64115;50.170;8.242;2024-02-21T02:13:56;4.80;99.90
8261;DHT22;64115;50.170;8.242;2024-02-21T02:16:23;4.80;99.90
8261;DHT22;64115;50.170;8.242;2024-02-21T02:18:50;4.70;99.90
8261;DHT22;64115;50.170;8.242;2024-02-21T02:21:23;4.70;99.90
8261;DHT22;64115;50.170;8.242;2024-02-21T02:23:54;4.70;99.90
8261;DHT22;64115;50.170;8.242;2024-02-21T02:26:20;4.60;99.90
8261;DHT22;64115;50.170;8.242;2024-02-21T02:28:47;4.70;99.90
8261;DHT22;64115;50.170;8.242;2024-02-21T02:31:14;4.70;99.90
8261;DHT22;64115;50.170;8.242;2024-02-21T02:33:42;4.70;99.90
8261;DHT22;64115;50.170;8.242;2024-02-21T02:36:09;4.80;99.90
8261;DHT22;64115;50.170;8.242;2024-02-21T02:38:37;4.80;99.90
8261;DHT22;64115;50.170;8.242;2024-02-21T02:41:05;4.80;99.90
8261;DHT22;64115;50.170;8.242;2024-02-21T02:43:32;4.90;99.90
8261;DHT22;64115;50.170;8.242;2024-02-21T02:45:58;4.90;99.90
8261;DHT22;64115;50.170;8.242;2024-02-21T02:48:25;4.90;99.90
8261;DHT22;64115;50.170;8.242;2024-02-21T02:50:52;4.90;99.90
8261;DHT22;64115;50.170;8.242;2024-02-21T02:53:19;5.00;99.90
8261;DHT22;64115;50.170;8.242;2024-02-21T02:55:46;5.00;99.90
8261;DHT22;64115;50.170;8.242;2024-02-21T02:58:14;5.10;99.90
8261;DHT22;64115;50.170;8.242;2024-02-21T03:00:40;5.10;99.90
8261;DHT22;64115;50.170;8.242;2024-02-21T03:03:07;5.10;99.90
8261;DHT22;64115;50.170;8.242;2024-02-21T03:05:34;5.10;99.90
8261;DHT22;64115;50.170;8.242;2024-02-21T03:08:01;5.10;99.90
8261;DHT22;64115;50.170;8.242;2024-02-21T03:10:32;5.10;99.90
8261;DHT22;64115;50.170;8.242;2024-02-21T03:12:59;5.10;99.90
8261;DHT22;64115;50.170;8.242;2024-02-21T03:15:27;5.10;99.90
8261;DHT22;64115;50.170;8.242;2024-02-21T03:17:54;5.10;99.90
8261;DHT22;64115;50.170;8.242;2024-02-21T03:20:20;5.10;99.90
8261;DHT22;64115;50.170;8.242;2024-02-21T03:22:47;5.10;99.90
8261;DHT22;64115;50.170;8.242;2024-02-21T03:25:14;5.00;99.90
8261;DHT22;64115;50.170;8.242;2024-02-21T03:27:41;5.10;99.90
8261;DHT22;64115;50.170;8.242;2024-02-21T03:30:09;5.10;99.90
8261;DHT22;64115;50.170;8.242;2024-02-21T03:32:37;5.10;99.90
8261;DHT22;64115;50.170;8.242;2024-02-21T03:35:05;5.10;99.90
8261;DHT22;64115;50.170;8.242;2024-02-21T03:37:31;5.10;99.90
8261;DHT22;64115;50.170;8.242;2024-02-21T03:39:58;5.10;99.90
8261;DHT22;64115;50.170;8.242;2024-02-21T03:42:25;5.10;99.90
8261;DHT22;64115;50.170;8.242;2024-02-21T03:44:52;5.10;99.90
8261;DHT22;64115;50.170;8.242;2024-02-21T03:47:18;5.10;99.90
8261;DHT22;64115;50.170;8.242;2024-02-21T03:49:46;5.10;99.90
8261;DHT22;64115;50.170;8.242;2024-02-21T03:52:13;5.10;99.90
8261;DHT22;64115;50.170;8.242;2024-02-21T03:54:40;5.10;99.90
8261;DHT22;64115;50.170;8.242;2024-02-21T03:57:07;5.10;99.90
8261;DHT22;64115;50.170;8.242;2024-02-21T03:59:33;5.10;99.90
8261;DHT22;64115;50.170;8.242;2024-02-21T04:02:00;5.10;99.90
8261;DHT22;64115;50.170;8.242;2024-02-21T04:04:29;5.20;99.90
8261;DHT22;64115;50.170;8.242;2024-02-21T04:06:57;5.10;99.90
8261;DHT22;64115;50.170;8.242;2024-02-21T04:09:24;5.20;99.90
8261;DHT22;64115;50.170;8.242;2024-02-21T04:11:51;5.20;99.90
8261;DHT22;64115;50.170;8.242;2024-02-21T04:14:17;5.20;99.90
8261;DHT22;64115;50.170;8.242;2024-02-21T04:16:44;5.20;99.90
8261;DHT22;64115;50.170;8.242;2024-02-21T04:19:11;5.20;99.90
8261;DHT22;64115;50.170;8.242;2024-02-21T04:21:38;5.10;99.90
8261;DHT22;64115;50.170;8.242;2024-02-21T04:24:06;5.10;99.90
8261;DHT22;64115;50.170;8.242;2024-02-21T04:26:33;5.00;99.90
8261;DHT22;64115;50.170;8.242;2024-02-21T04:29:00;5.00;99.90
8261;DHT22;64115;50.170;8.242;2024-02-21T04:31:27;4.90;99.90
8261;DHT22;64115;50.170;8.242;2024-02-21T04:33:53;5.00;99.90
8261;DHT22;64115;50.170;8.242;2024-02-21T04:36:20;4.90;99.90
8261;DHT22;64115;50.170;8.242;2024-02-21T04:38:47;5.00;99.90
8261;DHT22;64115;50.170;8.242;2024-02-21T04:41:16;4.90;99.90
8261;DHT22;64115;50.170;8.242;2024-02-21T04:43:42;4.90;99.90
8261;DHT22;64115;50.170;8.242;2024-02-21T04:46:09;4.90;99.90
8261;DHT22;64115;50.170;8.242;2024-02-21T04:48:36;4.90;99.90
8261;DHT22;64115;50.170;8.242;2024-02-21T04:51:04;4.90;99.90
8261;DHT22;64115;50.170;8.242;2024-02-21T04:53:30;4.80;99.90
8261;DHT22;64115;50.170;8.242;2024-02-21T04:55:57;4.80;99.90
8261;DHT22;64115;50.170;8.242;2024-02-21T04:58:25;4.70;99.90
8261;DHT22;64115;50.170;8.242;2024-02-21T05:00:52;4.70;99.90
8261;DHT22;64115;50.170;8.242;2024-02-21T05:03:20;4.70;99.90
8261;DHT22;64115;50.170;8.242;2024-02-21T05:05:47;4.70;99.90
8261;DHT22;64115;50.170;8.242;2024-02-21T05:08:13;4.70;99.90
8261;DHT22;64115;50.170;8.242;2024-02-21T05:10:40;4.70;99.90
8261;DHT22;64115;50.170;8.242;2024-02-21T05:13:07;4.70;99.90
8261;DHT22;64115;50.170;8.242;2024-02-21T05:15:35;4.70;99.90
8261;DHT22;64115;50.170;8.242;2024-02-21T05:18:03;4.70;99.90
8261;DHT22;64115;50.170;8.242;2024-02-21T05:20:29;4.70;99.90
8261;DHT22;64115;50.170;8.242;2024-02-21T05:22:56;4.70;99.90
8261;DHT22;64115;50.170;8.242;2024-02-21T05:25:23;4.70;99.90
8261;DHT22;64115;50.170;8.242;2024-02-21T05:27:51;4.70;99.90
8261;DHT22;64115;50.170;8.242;2024-02-21T05:30:19;4.70;99.90
8261;DHT22;64115;50.170;8.242;2024-02-21T05:32:47;4.70;99.90
8261;DHT22;64115;50.170;8.242;2024-02-21T05:35:14;4.60;99.90
8261;DHT22;64115;50.170;8.242;2024-02-21T05:37:40;4.50;99.90
8261;DHT22;64115;50.170;8.242;2024-02-21T05:40:08;4.40;99.90
8261;DHT22;64115;50.170;8.242;2024-02-21T05:42:35;4.30;99.90
8261;DHT22;64115;50.170;8.242;2024-02-21T05:45:02;4.30;99.90
8261;DHT22;64115;50.170;8.242;2024-02-21T05:47:29;4.20;99.90
8261;DHT22;64115;50.170;8.242;2024-02-21T05:49:57;4.20;99.90
8261;DHT22;64115;50.170;8.242;2024-02-21T05:52:24;4.20;99.90
8261;DHT22;64115;50.170;8.242;2024-02-21T05:54:51;4.10;99.90
8261;DHT22;64115;50.170;8.242;2024-02-21T05:57:18;4.10;99.90
8261;DHT22;64115;50.170;8.242;2024-02-21T05:59:44;4.10;99.90
8261;DHT22;64115;50.170;8.242;2024-02-21T06:02:11;4.10;99.90
8261;DHT22;64115;50.170;8.242;2024-02-21T06:04:38;4.10;99.90
8261;DHT22;64115;50.170;8.242;2024-02-21T06:07:07;4.00;99.90
8261;DHT22;64115;50.170;8.242;2024-02-21T06:09:34;4.00;99.90
8261;DHT22;64115;50.170;8.242;2024-02-21T06:12:00;4.00;99.90
8261;DHT22;64115;50.170;8.242;2024-02-21T06:14:27;4.00;99.90
8261;DHT22;64115;50.170;8.242;2024-02-21T06:16:54;3.90;99.90
8261;DHT22;64115;50.170;8.242;2024-02-21T06:19:21;4.00;99.90
8261;DHT22;64115;50.170;8.242;2024-02-21T06:21:47;3.90;99.90
8261;DHT22;64115;50.170;8.242;2024-02-21T06:24:15;3.90;99.90
8261;DHT22;64115;50.170;8.242;2024-02-21T06:26:42;3.90;99.90
8261;DHT22;64115;50.170;8.242;2024-02-21T06:29:10;3.90;99.90
8261;DHT22;64115;50.170;8.242;2024-02-21T06:31:39;3.90;99.90
8261;DHT22;64115;50.170;8.242;2024-02-21T06:34:06;3.90;99.90
8261;DHT22;64115;50.170;8.242;2024-02-21T06:36:33;3.80;99.90
8261;DHT22;64115;50.170;8.242;2024-02-21T06:39:00;3.80;99.90
8261;DHT22;64115;50.170;8.242;2024-02-21T06:41:28;3.80;99.90
8261;DHT22;64115;50.170;8.242;2024-02-21T06:43:56;3.80;99.90
8261;DHT22;64115;50.170;8.242;2024-02-21T06:46:23;3.80;99.90
8261;DHT22;64115;50.170;8.242;2024-02-21T06:48:50;3.80;99.90
8261;DHT22;64115;50.170;8.242;2024-02-21T06:51:17;3.80;99.90
8261;DHT22;64115;50.170;8.242;2024-02-21T06:53:44;3.90;99.90
8261;DHT22;64115;50.170;8.242;2024-02-21T06:56:11;3.90;99.90
8261;DHT22;64115;50.170;8.242;2024-02-21T06:58:39;3.90;99.90
8261;DHT22;64115;50.170;8.242;2024-02-21T07:01:06;3.90;99.90
8261;DHT22;64115;50.170;8.242;2024-02-21T07:03:33;4.00;99.90
8261;DHT22;64115;50.170;8.242;2024-02-21T07:06:00;4.00;99.90
8261;DHT22;64115;50.170;8.242;2024-02-21T07:08:27;4.00;99.90
8261;DHT22;64115;50.170;8.242;2024-02-21T07:10:54;4.00;99.90
8261;DHT22;64115;50.170;8.242;2024-02-21T07:13:21;4.10;99.90
8261;DHT22;64115;50.170;8.242;2024-02-21T07:15:49;4.10;99.90
8261;DHT22;64115;50.170;8.242;2024-02-21T07:18:16;4.10;99.90
8261;DHT22;64115;50.170;8.242;2024-02-21T07:20:43;4.20;99.90
8261;DHT22;64115;50.170;8.242;2024-02-21T07:23:10;4.20;99.90
8261;DHT22;64115;50.170;8.242;2024-02-21T07:25:37;4.30;99.90
8261;DHT22;64115;50.170;8.242;2024-02-21T07:28:04;4.40;99.90
8261;DHT22;64115;50.170;8.242;2024-02-21T07:30:31;4.40;99.90
8261;DHT22;64115;50.170;8.242;2024-02-21T07:32:59;4.40;99.90
8261;DHT22;64115;50.170;8.242;2024-02-21T07:35:26;4.50;99.90
8261;DHT22;64115;50.170;8.242;2024-02-21T07:37:52;4.50;99.90
8261;DHT22;64115;50.170;8.242;2024-02-21T07:40:19;4.50;99.90
8261;DHT22;64115;50.170;8.242;2024-02-21T07:42:46;4.60;99.90
8261;DHT22;64115;50.170;8.242;2024-02-21T07:45:13;4.70;99.90
8261;DHT22;64115;50.170;8.242;2024-02-21T07:47:39;4.70;99.90
8261;DHT22;64115;50.170;8.242;2024-02-21T07:50:08;4.80;99.90
8261;DHT22;64115;50.170;8.242;2024-02-21T07:52:35;4.90;99.90
8261;DHT22;64115;50.170;8.242;2024-02-21T07:55:02;4.90;99.90
8261;DHT22;64115;50.170;8.242;2024-02-21T07:57:29;5.00;99.90
8261;DHT22;64115;50.170;8.242;2024-02-21T07:59:56;5.10;99.90
8261;DHT22;64115;50.170;8.242;2024-02-21T08:02:23;5.10;99.90
8261;DHT22;64115;50.170;8.242;2024-02-21T08:04:50;5.20;99.90
8261;DHT22;64115;50.170;8.242;2024-02-21T08:07:18;5.20;99.90
8261;DHT22;64115;50.170;8.242;2024-02-21T08:09:44;5.30;99.90
8261;DHT22;64115;50.170;8.242;2024-02-21T08:12:11;5.40;99.90
8261;DHT22;64115;50.170;8.242;2024-02-21T08:14:38;5.50;99.90
8261;DHT22;64115;50.170;8.242;2024-02-21T08:17:05;5.50;99.90
8261;DHT22;64115;50.170;8.242;2024-02-21T08:19:32;5.50;99.90
8261;DHT22;64115;50.170;8.242;2024-02-21T08:21:58;5.60;99.90
8261;DHT22;64115;50.170;8.242;2024-02-21T08:24:27;5.60;99.90
8261;DHT22;64115;50.170;8.242;2024-02-21T08:26:54;5.60;99.90
8261;DHT22;64115;50.170;8.242;2024-02-21T08:29:20;5.60;99.90
8261;DHT22;64115;50.170;8.242;2024-02-21T08:31:47;5.60;99.90
8261;DHT22;64115;50.170;8.242;2024-02-21T08:34:14;5.70;99.90
8261;DHT22;64115;50.170;8.242;2024-02-21T08:36:41;5.80;99.90
8261;DHT22;64115;50.170;8.242;2024-02-21T08:39:08;5.80;99.90
8261;DHT22;64115;50.170;8.242;2024-02-21T08:41:37;5.70;99.90
8261;DHT22;64115;50.170;8.242;2024-02-21T08:44:04;5.80;99.90
8261;DHT22;64115;50.170;8.242;2024-02-21T08:46:31;5.80;99.90
8261;DHT22;64115;50.170;8.242;2024-02-21T08:48:58;5.80;99.90
8261;DHT22;64115;50.170;8.242;2024-02-21T08:51:25;5.80;99.90
8261;DHT22;64115;50.170;8.242;2024-02-21T08:53:52;5.80;99.90
8261;DHT22;64115;50.170;8.242;2024-02-21T08:56:19;5.80;99.90
8261;DHT22;64115;50.170;8.242;2024-02-21T08:58:47;5.90;99.90
8261;DHT22;64115;50.170;8.242;2024-02-21T09:01:14;6.00;99.90
8261;DHT22;64115;50.170;8.242;2024-02-21T09:03:41;6.10;99.90
8261;DHT22;64115;50.170;8.242;2024-02-21T09:06:09;6.20;99.90
8261;DHT22;64115;50.170;8.242;2024-02-21T09:08:38;6.30;99.90
8261;DHT22;64115;50.170;8.242;2024-02-21T09:11:06;6.40;99.90
8261;DHT22;64115;50.170;8.242;2024-02-21T09:13:33;6.50;99.90
8261;DHT22;64115;50.170;8.242;2024-02-21T09:16:01;6.60;99.90
8261;DHT22;64115;50.170;8.242;2024-02-21T09:18:28;6.70;99.90
8261;DHT22;64115;50.170;8.242;2024-02-21T09:20:55;6.70;99.90
8261;DHT22;64115;50.170;8.242;2024-02-21T09:23:24;6.80;99.90
8261;DHT22;64115;50.170;8.242;2024-02-21T09:25:50;6.90;99.90
8261;DHT22;64115;50.170;8.242;2024-02-21T09:28:17;6.70;99.90
8261;DHT22;64115;50.170;8.242;2024-02-21T09:30:44;6.70;99.90
8261;DHT22;64115;50.170;8.242;2024-02-21T09:33:12;6.70;99.90
8261;DHT22;64115;50.170;8.242;2024-02-21T09:35:40;6.80;99.90
8261;DHT22;64115;50.170;8.242;2024-02-21T09:38:06;6.90;99.90
8261;DHT22;64115;50.170;8.242;2024-02-21T09:40:33;7.00;99.90
8261;DHT22;64115;50.170;8.242;2024-02-21T09:43:04;7.00;99.90
8261;DHT22;64115;50.170;8.242;2024-02-21T09:45:33;7.00;99.90
8261;DHT22;64115;50.170;8.242;2024-02-21T09:48:22;7.10;99.90
8261;DHT22;64115;50.170;8.242;2024-02-21T09:50:51;7.20;99.90
8261;DHT22;64115;50.170;8.242;2024-02-21T09:53:19;7.40;99.90
8261;DHT22;64115;50.170;8.242;2024-02-21T09:55:48;7.30;99.90
8261;DHT22;64115;50.170;8.242;2024-02-21T09:58:15;7.30;99.90
8261;DHT22;64115;50.170;8.242;2024-02-21T10:00:42;7.40;99.90
8261;DHT22;64115;50.170;8.242;2024-02-21T10:03:09;7.60;99.90
8261;DHT22;64115;50.170;8.242;2024-02-21T10:05:37;7.60;99.90
8261;DHT22;64115;50.170;8.242;2024-02-21T10:08:05;7.60;99.90
8261;DHT22;64115;50.170;8.242;2024-02-21T10:10:41;7.70;99.90
8261;DHT22;64115;50.170;8.242;2024-02-21T10:13:09;7.80;99.90
8261;DHT22;64115;50.170;8.242;2024-02-21T10:15:35;8.00;99.90
8261;DHT22;64115;50.170;8.242;2024-02-21T10:18:03;8.00;99.90
8261;DHT22;64115;50.170;8.242;2024-02-21T10:20:30;7.90;99.90
8261;DHT22;64115;50.170;8.242;2024-02-21T10:23:04;7.80;99.90
8261;DHT22;64115;50.170;8.242;2024-02-21T10:25:33;8.00;99.90
8261;DHT22;64115;50.170;8.242;2024-02-21T10:28:01;7.80;99.90
8261;DHT22;64115;50.170;8.242;2024-02-21T10:30:29;7.80;99.90
8261;DHT22;64115;50.170;8.242;2024-02-21T10:32:56;7.70;99.90
8261;DHT22;64115;50.170;8.242;2024-02-21T10:35:26;7.80;99.90
8261;DHT22;64115;50.170;8.242;2024-02-21T10:37:54;7.90;99.90
8261;DHT22;64115;50.170;8.242;2024-02-21T10:40:23;8.00;99.90
8261;DHT22;64115;50.170;8.242;2024-02-21T10:42:56;8.00;99.90
8261;DHT22;64115;50.170;8.242;2024-02-21T10:45:29;8.20;99.90
8261;DHT22;64115;50.170;8.242;2024-02-21T10:48:05;8.20;99.90
8261;DHT22;64115;50.170;8.242;2024-02-21T10:50:46;8.20;99.90
8261;DHT22;64115;50.170;8.242;2024-02-21T10:53:22;8.10;99.90
8261;DHT22;64115;50.170;8.242;2024-02-21T10:55:58;8.30;99.90
8261;DHT22;64115;50.170;8.242;2024-02-21T10:58:29;8.30;99.90
8261;DHT22;64115;50.170;8.242;2024-02-21T11:00:56;8.40;99.90
8261;DHT22;64115;50.170;8.242;2024-02-21T11:03:25;8.60;99.90
8261;DHT22;64115;50.170;8.242;2024-02-21T11:05:52;8.80;99.90
8261;DHT22;64115;50.170;8.242;2024-02-21T11:08:19;8.90;99.90
8261;DHT22;64115;50.170;8.242;2024-02-21T11:10:46;8.80;99.90
8261;DHT22;64115;50.170;8.242;2024-02-21T11:13:14;8.80;99.90
8261;DHT22;64115;50.170;8.242;2024-02-21T11:15:41;8.70;99.90
8261;DHT22;64115;50.170;8.242;2024-02-21T11:18:08;8.60;99.90
8261;DHT22;64115;50.170;8.242;2024-02-21T11:20:36;8.60;99.90
8261;DHT22;64115;50.170;8.242;2024-02-21T11:23:03;8.60;99.90
8261;DHT22;64115;50.170;8.242;2024-02-21T11:25:30;8.60;99.90
8261;DHT22;64115;50.170;8.242;2024-02-21T11:28:02;8.50;99.90
8261;DHT22;64115;50.170;8.242;2024-02-21T11:30:31;8.60;99.90
8261;DHT22;64115;50.170;8.242;2024-02-21T11:33:02;8.40;99.90
8261;DHT22;64115;50.170;8.242;2024-02-21T11:35:32;8.30;99.90
8261;DHT22;64115;50.170;8.242;2024-02-21T11:38:08;8.40;99.90
8261;DHT22;64115;50.170;8.242;2024-02-21T11:40:39;8.50;99.90
8261;DHT22;64115;50.170;8.242;2024-02-21T11:43:06;8.50;99.90
8261;DHT22;64115;50.170;8.242;2024-02-21T11:45:35;8.60;99.90
8261;DHT22;64115;50.170;8.242;2024-02-21T11:48:02;8.70;99.90
8261;DHT22;64115;50.170;8.242;2024-02-21T11:50:31;8.80;99.90
8261;DHT22;64115;50.170;8.242;2024-02-21T11:52:58;8.80;99.90
8261;DHT22;64115;50.170;8.242;2024-02-21T11:55:24;8.80;99.90
8261;DHT22;64115;50.170;8.242;2024-02-21T11:57:51;8.70;99.90
8261;DHT22;64115;50.170;8.242;2024-02-21T12:00:19;8.70;99.90
8261;DHT22;64115;50.170;8.242;2024-02-21T12:02:48;8.60;99.90
8261;DHT22;64115;50.170;8.242;2024-02-21T12:05:16;8.80;99.90
8261;DHT22;64115;50.170;8.242;2024-02-21T12:07:45;8.90;99.90
8261;DHT22;64115;50.170;8.242;2024-02-21T12:10:13;8.90;99.90
8261;DHT22;64115;50.170;8.242;2024-02-21T12:12:40;8.90;99.90
8261;DHT22;64115;50.170;8.242;2024-02-21T12:15:07;9.10;99.90
8261;DHT22;64115;50.170;8.242;2024-02-21T12:17:35;9.20;99.90
8261;DHT22;64115;50.170;8.242;2024-02-21T12:20:04;9.30;99.90
8261;DHT22;64115;50.170;8.242;2024-02-21T12:22:35;9.30;99.90
8261;DHT22;64115;50.170;8.242;2024-02-21T12:25:03;9.20;99.90
8261;DHT22;64115;50.170;8.242;2024-02-21T12:27:31;9.00;99.90
8261;DHT22;64115;50.170;8.242;2024-02-21T12:29:57;9.00;99.90
8261;DHT22;64115;50.170;8.242;2024-02-21T12:32:24;8.90;99.90
8261;DHT22;64115;50.170;8.242;2024-02-21T12:34:51;8.90;99.90
8261;DHT22;64115;50.170;8.242;2024-02-21T12:37:19;8.80;99.90
8261;DHT22;64115;50.170;8.242;2024-02-21T12:39:46;8.70;99.90
8261;DHT22;64115;50.170;8.242;2024-02-21T12:42:13;8.70;99.90
8261;DHT22;64115;50.170;8.242;2024-02-21T12:44:39;8.50;99.90
8261;DHT22;64115;50.170;8.242;2024-02-21T12:47:07;8.50;99.90
8261;DHT22;64115;50.170;8.242;2024-02-21T12:49:34;8.60;99.90
8261;DHT22;64115;50.170;8.242;2024-02-21T12:52:01;8.60;99.90
8261;DHT22;64115;50.170;8.242;2024-02-21T12:54:30;8.60;99.90
8261;DHT22;64115;50.170;8.242;2024-02-21T12:56:57;8.80;99.90
8261;DHT22;64115;50.170;8.242;2024-02-21T12:59:28;8.80;99.90
8261;DHT22;64115;50.170;8.242;2024-02-21T13:01:55;8.80;99.90
8261;DHT22;64115;50.170;8.242;2024-02-21T13:04:21;8.90;99.90
8261;DHT22;64115;50.170;8.242;2024-02-21T13:06:49;8.90;99.90
8261;DHT22;64115;50.170;8.242;2024-02-21T13:09:16;8.90;99.90
8261;DHT22;64115;50.170;8.242;2024-02-21T13:11:45;8.80;99.90
8261;DHT22;64115;50.170;8.242;2024-02-21T13:14:12;8.70;99.90
8261;DHT22;64115;50.170;8.242;2024-02-21T13:16:39;8.70;99.90
8261;DHT22;64115;50.170;8.242;2024-02-21T13:19:06;8.60;99.90
8261;DHT22;64115;50.170;8.242;2024-02-21T13:21:33;8.60;99.90
8261;DHT22;64115;50.170;8.242;2024-02-21T13:24:00;8.50;99.90
8261;DHT22;64115;50.170;8.242;2024-02-21T13:26:27;8.30;99.90
8261;DHT22;64115;50.170;8.242;2024-02-21T13:28:55;8.20;99.90
8261;DHT22;64115;50.170;8.242;2024-02-21T13:31:22;8.40;99.90
8261;DHT22;64115;50.170;8.242;2024-02-21T13:33:50;8.40;99.90
8261;DHT22;64115;50.170;8.242;2024-02-21T13:36:17;8.30;99.90
8261;DHT22;64115;50.170;8.242;2024-02-21T13:38:44;8.40;99.90
8261;DHT22;64115;50.170;8.242;2024-02-21T13:41:11;8.50;99.90
8261;DHT22;64115;50.170;8.242;2024-02-21T13:43:38;8.60;99.90
8261;DHT22;64115;50.170;8.242;2024-02-21T13:46:06;8.60;99.90
8261;DHT22;64115;50.170;8.242;2024-02-21T13:48:35;8.50;99.90
8261;DHT22;64115;50.170;8.242;2024-02-21T13:51:02;8.40;99.90
8261;DHT22;64115;50.170;8.242;2024-02-21T13:53:29;8.50;99.90
8261;DHT22;64115;50.170;8.242;2024-02-21T13:55:56;8.70;99.90
8261;DHT22;64115;50.170;8.242;2024-02-21T13:58:23;8.70;99.90
8261;DHT22;64115;50.170;8.242;2024-02-21T14:00:51;8.50;99.90
8261;DHT22;64115;50.170;8.242;2024-02-21T14:03:19;8.60;99.90
8261;DHT22;64115;50.170;8.242;2024-02-21T14:05:46;8.40;99.90
8261;DHT22;64115;50.170;8.242;2024-02-21T14:08:14;8.40;99.90
8261;DHT22;64115;50.170;8.242;2024-02-21T14:10:41;8.50;99.90
8261;DHT22;64115;50.170;8.242;2024-02-21T14:13:07;8.40;99.90
8261;DHT22;64115;50.170;8.242;2024-02-21T14:15:34;8.40;99.90
8261;DHT22;64115;50.170;8.242;2024-02-21T14:18:02;8.40;99.90
8261;DHT22;64115;50.170;8.242;2024-02-21T14:20:32;8.30;99.90
8261;DHT22;64115;50.170;8.242;2024-02-21T14:22:59;8.30;99.90
8261;DHT22;64115;50.170;8.242;2024-02-21T14:25:26;8.20;99.90
8261;DHT22;64115;50.170;8.242;2024-02-21T14:27:53;8.10;99.90
8261;DHT22;64115;50.170;8.242;2024-02-21T14:30:19;8.20;99.90
8261;DHT22;64115;50.170;8.242;2024-02-21T14:32:46;8.20;99.90
8261;DHT22;64115;50.170;8.242;2024-02-21T14:35:13;8.20;99.90
8261;DHT22;64115;50.170;8.242;2024-02-21T14:37:42;8.20;99.90
8261;DHT22;64115;50.170;8.242;2024-02-21T14:40:10;8.20;99.90
8261;DHT22;64115;50.170;8.242;2024-02-21T14:42:37;8.20;99.90
8261;DHT22;64115;50.170;8.242;2024-02-21T14:45:05;8.20;99.90
8261;DHT22;64115;50.170;8.242;2024-02-21T14:47:32;8.20;99.90
8261;DHT22;64115;50.170;8.242;2024-02-21T14:50:01;8.20;99.90
8261;DHT22;64115;50.170;8.242;2024-02-21T14:52:27;8.10;99.90
8261;DHT22;64115;50.170;8.242;2024-02-21T14:54:56;8.00;99.90
8261;DHT22;64115;50.170;8.242;2024-02-21T14:57:23;7.90;99.90
8261;DHT22;64115;50.170;8.242;2024-02-21T14:59:50;7.90;99.90
8261;DHT22;64115;50.170;8.242;2024-02-21T15:02:21;8.00;99.90
8261;DHT22;64115;50.170;8.242;2024-02-21T15:04:48;8.00;99.90
8261;DHT22;64115;50.170;8.242;2024-02-21T15:07:16;7.90;99.90
8261;DHT22;64115;50.170;8.242;2024-02-21T15:09:44;7.90;99.90
8261;DHT22;64115;50.170;8.242;2024-02-21T15:12:12;7.90;99.90
8261;DHT22;64115;50.170;8.242;2024-02-21T15:14:39;7.80;99.90
8261;DHT22;64115;50.170;8.242;2024-02-21T15:17:06;7.80;99.90
8261;DHT22;64115;50.170;8.242;2024-02-21T15:19:32;7.80;99.90
8261;DHT22;64115;50.170;8.242;2024-02-21T15:22:00;7.70;99.90
8261;DHT22;64115;50.170;8.242;2024-02-21T15:24:26;7.60;99.90
8261;DHT22;64115;50.170;8.242;2024-02-21T15:26:53;7.60;99.90
8261;DHT22;64115;50.170;8.242;2024-02-21T15:29:21;7.50;99.90
8261;DHT22;64115;50.170;8.242;2024-02-21T15:31:49;7.50;99.90
8261;DHT22;64115;50.170;8.242;2024-02-21T15:34:15;7.50;99.90
8261;DHT22;64115;50.170;8.242;2024-02-21T15:36:43;7.50;99.90
8261;DHT22;64115;50.170;8.242;2024-02-21T15:39:10;7.50;99.90
8261;DHT22;64115;50.170;8.242;2024-02-21T15:41:37;7.40;99.90
8261;DHT22;64115;50.170;8.242;2024-02-21T15:44:04;7.40;99.90
8261;DHT22;64115;50.170;8.242;2024-02-21T15:46:32;7.40;99.90
8261;DHT22;64115;50.170;8.242;2024-02-21T15:49:02;7.40;99.90
8261;DHT22;64115;50.170;8.242;2024-02-21T15:51:29;7.40;99.90
8261;DHT22;64115;50.170;8.242;2024-02-21T15:53:56;7.40;99.90
8261;DHT22;64115;50.170;8.242;2024-02-21T15:56:23;7.40;99.90
8261;DHT22;64115;50.170;8.242;2024-02-21T15:58:50;7.40;99.90
8261;DHT22;64115;50.170;8.242;2024-02-21T16:01:17;7.30;99.90
8261;DHT22;64115;50.170;8.242;2024-02-21T16:03:45;7.40;99.90